METAR Data
IDs: Format: Raw Decoded Include TAF

Data at: 2024 UTC 18 Apr 2021

KBOW 181950Z 24014G21KT 10SM SCT050 31/20 A2986
KBOW 181845Z 24012G18KT 10SM SCT044 SCT050 31/20 A2989
KBOW 181750Z 23014KT 10SM SCT041 BKN050 30/20 A2989
KBOW 181650Z 22013KT 10SM SCT035 BKN048 30/20 A2991
KBOW 181550Z 23008G16KT 10SM BKN030 28/21 A2995
KBOW 181450Z 20012G18KT 10SM BKN016 BKN024 27/22 A2995
KBOW 181350Z 20011KT 10SM BKN010 26/22 A2994
KBOW 181245Z 19008KT 7SM BKN006 23/22 A2994
KBOW 181150Z 21004KT 3SM BR FEW004 23/22 A2994
KBOW 181115Z AUTO 20005KT 4SM BR BKN004 BKN027 BKN032 22/22 A2993 RMK AO2
KBOW 181055Z AUTO 22008KT 6SM BR OVC005 22/22 A2993 RMK AO2
KBOW 181035Z AUTO 22006KT 6SM BR BKN003 OVC007 22/22 A2992 RMK AO2
KBOW 181015Z AUTO 20006KT 1 1/4SM BR OVC002 22/22 A2991 RMK AO2
KBOW 180955Z AUTO 19007KT 2 1/2SM BR OVC003 22/21 A2991 RMK AO2
KBOW 180935Z AUTO 19005KT 4SM BR OVC003 22/22 A2991 RMK AO2
KBOW 180915Z AUTO 26003KT 6SM BR BKN004 OVC032 22/22 A2991 RMK AO2
KBOW 180855Z AUTO 00000KT 4SM BR BKN004 BKN023 OVC032 22/21 A2991 RMK AO2
KBOW 180835Z AUTO 00000KT 4SM BR BKN004 BKN017 OVC031 22/21 A2991 RMK AO2
KBOW 180815Z AUTO 20005KT 5SM BR SCT005 BKN017 22/21 A2991 RMK AO2
KBOW 180755Z AUTO 20004KT 5SM BR FEW004 22/21 A2991 RMK AO2
KBOW 180735Z AUTO 20004KT 5SM BR CLR 22/21 A2991 RMK AO2
KBOW 180715Z AUTO 20006KT 6SM BR FEW016 FEW026 SCT055 22/21 A2991 RMK AO2
KBOW 180655Z AUTO 21005KT 7SM SCT027 SCT033 BKN055 22/21 A2992 RMK AO2
KBOW 180635Z AUTO 00000KT 9SM FEW017 BKN027 OVC055 22/21 A2992 RMK AO2
KBOW 180615Z AUTO 20003KT 10SM FEW018 BKN027 BKN039 22/21 A2992 RMK AO2
KBOW 180555Z AUTO 00000KT 10SM CLR 22/21 A2992 RMK AO2
KBOW 180535Z AUTO 00000KT 10SM CLR 22/21 A2992 RMK AO2
KBOW 180515Z AUTO 00000KT 10SM FEW019 21/20 A2993 RMK AO2
KBOW 180455Z AUTO 00000KT 10SM FEW019 21/20 A2993 RMK AO2
KBOW 180435Z AUTO 00000KT 10SM CLR 21/20 A2993 RMK AO2
KBOW 180415Z AUTO 00000KT 10SM FEW024 BKN031 21/20 A2993 RMK AO2
KBOW 180355Z AUTO 00000KT 10SM FEW024 SCT030 22/20 A2993 RMK AO2
KBOW 180335Z AUTO 24004KT 10SM CLR 23/21 A2993 RMK AO2
KBOW 180315Z AUTO 00000KT 10SM CLR 23/20 A2991 RMK AO2
KBOW 180255Z AUTO 25004KT 10SM CLR 24/21 A2991 RMK AO2
KBOW 180235Z AUTO 24005KT 10SM CLR 24/20 A2990 RMK AO2
KBOW 180215Z AUTO 24005KT 10SM CLR 24/20 A2990 RMK AO2
KBOW 180155Z AUTO 24006KT 10SM CLR 24/20 A2989 RMK AO2
KBOW 180135Z AUTO 24008KT 10SM CLR 25/20 A2989 RMK AO2
KBOW 180115Z AUTO 24006KT 10SM CLR 25/20 A2988 RMK AO2
KBOW 180055Z AUTO 26005KT 10SM CLR 25/20 A2988 RMK AO2
KBOW 180035Z AUTO 25007KT 10SM CLR 26/20 A2988 RMK AO2
KBOW 180015Z AUTO 26008KT 10SM CLR 26/20 A2987 RMK AO2
KBOW 172355Z AUTO 25009KT 10SM CLR 27/19 A2987 RMK AO2
KBOW 172335Z AUTO 24009KT 10SM CLR 27/19 A2986 RMK AO2
KBOW 172315Z AUTO 25010KT 10SM CLR 28/19 A2985 RMK AO2
KBOW 172255Z AUTO 25011KT 10SM CLR 28/19 A2986 RMK AO2
KBOW 172235Z AUTO 25012KT 10SM CLR 29/19 A2985 RMK AO2
KBOW 172215Z AUTO 26012G17KT 10SM CLR 29/19 A2985 RMK AO2
KBOW 172155Z AUTO 24012KT 10SM FEW041 30/19 A2985 RMK AO2
KBOW 172135Z AUTO 26011KT 10SM SCT041 SCT048 SCT055 30/19 A2984 RMK AO2
KBOW 172045Z 23013KT 10SM SCT043 30/19 A2983
KBOW 171950Z 27011KT 10SM SCT043 30/19 A2984
KBOW 171845Z 24012KT 10SM FEW046 31/18 A2986
KBOW 171750Z 26012KT 10SM BKN030 30/19 A2989
KBOW 171650Z 25010KT 10SM BKN028 28/20 A2991
KBOW 171550Z 24012KT 10SM BKN020 27/21 A2993
KBOW 171450Z 23008KT 8SM BKN014 25/21 A2992
KBOW 171350Z 23008KT 7SM SCT008 23/21 A2989
KBOW 171330Z 23008KT 6SM HZ BKN008 23/21 A2992
KBOW 171245Z 23008KT 4SM BR BKN015 23/21 A2991
KBOW 171150Z VRB04KT 2SM FG BKN007 22/21 A2989
KBOW 171131Z COR VRB04KT 2SM FG BKN005 22/21 A2988
KBOW 171130Z VRB04KT 2SM BKN005 22/21 A2988
KBOW 171115Z AUTO 21005KT 2 1/2SM BR OVC007 22/21 A2988 RMK AO2
KBOW 171055Z AUTO 21005KT 4SM BR OVC007 22/21 A2986 RMK AO2
KBOW 171035Z AUTO 20006KT 4SM BR OVC006 22/21 A2985 RMK AO2
KBOW 171015Z AUTO 20006KT 4SM BR BKN007 22/21 A2986 RMK AO2 LTG DSNT NW
KBOW 170955Z AUTO 20006KT 4SM BR OVC007 22/21 A2986 RMK AO2 LTG DSNT NW
KBOW 170935Z AUTO 21005KT 4SM BR BKN006 BKN010 21/21 A2986 RMK AO2
KBOW 170915Z AUTO 21007KT 4SM BR OVC004 21/21 A2986 RMK AO2
KBOW 170855Z AUTO 21008KT 3SM BR OVC003 21/21 A2985 RMK AO2
KBOW 170835Z AUTO 20006KT 6SM BR OVC005 21/20 A2985 RMK AO2